Time;durP1;ratioP1;P1;durP2;ratioP2;P2;SDS_P1;SDS_P2;PMS_P1;PMS_P2;Temp;Humidity;BMP_temperature;BMP_pressure;BME280_temperature;BME280_humidity;BME280_pressure;Samples;Min_cycle;Max_cycle;Signal;HPM_P1;HPM_P2
2021/12/27 00:00:21;;;;;;;24.00;20.50;;;;;;;-7.57;69.24;97654.14;106258;1323;23167;-62
2021/12/27 00:03:05;;;;;;;25.10;22.30;;;;;;;-7.51;69.26;97649.35;106271;1323;23325;-60
2021/12/27 00:05:34;;;;;;;23.00;20.40;;;;;;;-7.45;69.46;97646.23;106238;1323;23101;-60
2021/12/27 00:08:02;;;;;;;23.30;20.80;;;;;;;-7.41;69.47;97646.77;106305;1317;22451;-60
2021/12/27 00:10:30;;;;;;;25.30;20.00;;;;;;;-7.37;69.66;97643.63;106256;1323;22501;-58
2021/12/27 00:12:58;;;;;;;25.60;20.30;;;;;;;-7.35;69.53;97642.31;106251;1323;23256;-60
2021/12/27 00:15:27;;;;;;;27.10;24.20;;;;;;;-7.32;69.70;97637.86;106226;1323;22479;-61
2021/12/27 00:17:55;;;;;;;30.70;22.10;;;;;;;-7.26;70.04;97637.28;106276;1323;22490;-60
2021/12/27 00:20:24;;;;;;;25.70;23.20;;;;;;;-7.24;70.06;97633.52;106280;1322;22951;-60
2021/12/27 00:22:52;;;;;;;29.40;21.50;;;;;;;-7.23;70.23;97634.09;106098;1324;22491;-61
2021/12/27 00:25:21;;;;;;;26.90;21.20;;;;;;;-7.23;70.25;97635.95;106291;1323;22389;-61
2021/12/27 00:27:49;;;;;;;21.80;19.60;;;;;;;-7.21;70.10;97635.58;106271;1323;22263;-60
2021/12/27 00:30:18;;;;;;;22.80;20.10;;;;;;;-7.19;70.30;97632.71;106172;1323;139263;-60
2021/12/27 00:32:46;;;;;;;24.70;20.30;;;;;;;-7.17;70.25;97632.72;106280;1323;22488;-60
2021/12/27 00:35:18;;;;;;;24.90;21.80;;;;;;;-7.15;70.40;97630.39;106371;1323;22505;-60
2021/12/27 00:37:46;;;;;;;24.90;20.60;;;;;;;-7.14;70.45;97630.39;106343;1322;23308;-60
2021/12/27 00:40:15;;;;;;;26.00;22.00;;;;;;;-7.14;70.37;97623.71;106326;1323;22366;-60
2021/12/27 00:42:43;;;;;;;26.70;23.40;;;;;;;-7.16;70.61;97625.59;106228;1323;22429;-61
2021/12/27 00:45:12;;;;;;;26.30;21.50;;;;;;;-7.17;70.56;97624.73;106276;1323;22586;-60
2021/12/27 00:47:40;;;;;;;25.40;22.50;;;;;;;-7.21;70.57;97622.09;106288;1323;22932;-61
2021/12/27 00:50:10;;;;;;;25.60;22.90;;;;;;;-7.25;70.73;97626.66;106302;1322;22286;-60
2021/12/27 00:52:38;;;;;;;28.80;24.60;;;;;;;-7.31;71.02;97628.55;106271;1323;22589;-61
2021/12/27 00:55:09;;;;;;;35.50;28.30;;;;;;;-7.36;70.80;97624.41;106278;1323;22459;-61
2021/12/27 00:57:37;;;;;;;31.30;27.80;;;;;;;-7.42;70.80;97623.41;106243;1323;22554;-61
2021/12/27 01:00:10;;;;;;;34.60;30.40;;;;;;;-7.45;71.14;97622.23;106237;1323;22533;-61
2021/12/27 01:02:38;;;;;;;35.10;30.00;;;;;;;-7.50;70.99;97619.65;106276;1323;22485;-63
2021/12/27 01:05:08;;;;;;;39.30;32.30;;;;;;;-7.58;71.14;97619.72;106310;1323;22590;-62
2021/12/27 01:07:36;;;;;;;44.80;34.30;;;;;;;-7.65;71.13;97623.65;106301;1315;22422;-63
2021/12/27 01:17:48;;;;;;;41.80;35.30;;;;;;;-7.90;71.38;97629.23;106327;1323;23190;-63
2021/12/27 01:20:20;;;;;;;41.30;36.90;;;;;;;-7.96;71.44;97628.90;106322;1323;22509;-62
2021/12/27 01:22:50;;;;;;;42.30;37.70;;;;;;;-8.01;71.47;97629.89;106302;1322;23000;-61
2021/12/27 01:25:19;;;;;;;49.00;40.50;;;;;;;-8.07;71.78;97634.48;106307;1323;22514;-61
2021/12/27 01:27:47;;;;;;;50.10;44.60;;;;;;;-8.14;71.63;97640.19;106312;1323;22381;-62
2021/12/27 01:30:18;;;;;;;52.10;43.80;;;;;;;-8.23;72.10;97640.35;106291;1322;22458;-62
2021/12/27 01:32:51;;;;;;;57.70;44.20;;;;;;;-8.33;71.68;97636.50;106298;1323;22538;-61
2021/12/27 01:35:21;;;;;;;52.50;46.90;;;;;;;-8.41;71.26;97636.84;106281;1323;22541;-61
2021/12/27 01:37:51;;;;;;;53.90;46.90;;;;;;;-8.46;71.69;97632.36;106297;1323;23131;-61
2021/12/27 01:40:23;;;;;;;54.90;46.90;;;;;;;-8.53;71.76;97634.05;106171;1323;138922;-61
2021/12/27 01:43:09;;;;;;;58.40;51.80;;;;;;;-8.58;71.46;97634.55;106224;1324;23030;-61
2021/12/27 01:46:05;;;;;;;56.70;50.70;;;;;;;-8.65;71.87;97633.36;106306;1315;23342;-60
2021/12/27 01:48:39;;;;;;;64.90;52.00;;;;;;;-8.74;71.93;97633.00;106302;1323;23048;-62
2021/12/27 01:51:11;;;;;;;60.20;50.50;;;;;;;-8.80;72.04;97627.06;106027;1312;396417;-64
2021/12/27 01:53:42;;;;;;;59.80;50.00;;;;;;;-8.86;71.86;97621.45;106296;1323;23400;-61
2021/12/27 01:56:11;;;;;;;58.30;49.60;;;;;;;-8.90;72.07;97619.02;106332;1323;23122;-61
2021/12/27 01:58:40;;;;;;;59.50;49.80;;;;;;;-8.94;72.17;97613.02;106296;1323;22385;-61
2021/12/27 02:01:11;;;;;;;57.60;47.60;;;;;;;-8.99;72.46;97607.88;106349;1323;22568;-60
2021/12/27 02:03:41;;;;;;;57.20;49.90;;;;;;;-9.02;72.86;97605.13;106305;1323;22464;-60
2021/12/27 02:06:11;;;;;;;56.70;50.20;;;;;;;-9.03;72.55;97606.06;106264;1323;23351;-61
2021/12/27 02:08:41;;;;;;;61.40;49.90;;;;;;;-9.02;72.76;97603.02;106317;1323;23233;-61
2021/12/27 02:11:12;;;;;;;60.20;49.30;;;;;;;-9.02;72.70;97600.60;106213;1320;139031;-61
2021/12/27 02:13:44;;;;;;;57.20;50.90;;;;;;;-9.05;72.88;97601.88;106214;1316;22450;-60
2021/12/27 02:16:16;;;;;;;61.20;52.90;;;;;;;-9.09;72.70;97598.83;106220;1319;22423;-61
2021/12/27 02:18:45;;;;;;;60.00;51.30;;;;;;;-9.11;72.70;97601.65;106275;1321;22519;-61
2021/12/27 02:21:14;;;;;;;54.40;46.60;;;;;;;-9.12;73.08;97596.03;106137;1321;22410;-62
2021/12/27 02:23:43;;;;;;;54.70;48.60;;;;;;;-9.14;73.25;97597.64;106288;1321;22570;-61
2021/12/27 02:26:12;;;;;;;54.50;48.70;;;;;;;-9.16;73.23;97595.55;106319;1315;22524;-61
2021/12/27 02:28:40;;;;;;;55.70;48.50;;;;;;;-9.15;73.27;97591.65;106305;1320;22425;-64
2021/12/27 02:31:09;;;;;;;55.20;49.20;;;;;;;-9.14;73.28;97592.45;106314;1316;22481;-63
2021/12/27 02:33:39;;;;;;;58.00;51.90;;;;;;;-9.16;73.41;97590.88;106284;1321;22533;-64
2021/12/27 02:36:09;;;;;;;60.10;50.80;;;;;;;-9.16;73.50;97591.47;106226;1318;22476;-64
2021/12/27 02:38:41;;;;;;;55.00;49.10;;;;;;;-9.17;73.47;97594.80;106284;1321;23176;-63
2021/12/27 02:41:11;;;;;;;52.80;46.10;;;;;;;-9.16;73.61;97597.01;106159;1318;139411;-64
2021/12/27 02:43:42;;;;;;;51.30;45.90;;;;;;;-9.16;73.52;97594.69;106294;1318;22619;-64
2021/12/27 02:46:13;;;;;;;56.50;46.70;;;;;;;-9.14;74.15;97593.48;106284;1317;22624;-64
2021/12/27 02:48:46;;;;;;;47.00;42.00;;;;;;;-9.11;73.89;97585.48;106276;1323;22605;-64
2021/12/27 02:51:17;;;;;;;48.10;43.10;;;;;;;-9.08;74.32;97584.06;106294;1318;23033;-64
2021/12/27 02:53:49;;;;;;;47.00;41.90;;;;;;;-9.06;73.88;97588.38;106206;1318;22394;-65
2021/12/27 02:56:19;;;;;;;53.30;48.00;;;;;;;-9.05;74.04;97581.41;106321;1321;22958;-64
2021/12/27 02:58:48;;;;;;;50.30;45.10;;;;;;;-9.02;74.13;97574.34;106185;1323;22696;-65
2021/12/27 03:01:19;;;;;;;45.50;40.80;;;;;;;-9.02;74.27;97564.18;106267;1323;22623;-65
2021/12/27 03:03:47;;;;;;;45.90;40.90;;;;;;;-9.00;74.30;97559.49;106272;1323;22497;-63
2021/12/27 03:06:16;;;;;;;43.20;38.70;;;;;;;-8.96;74.82;97551.36;106260;1323;22456;-63
2021/12/27 03:08:46;;;;;;;41.60;37.30;;;;;;;-8.88;74.67;97548.31;106292;1323;22624;-63
2021/12/27 03:11:14;;;;;;;43.00;38.60;;;;;;;-8.81;74.48;97547.39;106269;1323;22481;-64
2021/12/27 03:13:48;;;;;;;46.50;41.50;;;;;;;-8.73;74.25;97551.58;106253;1323;22582;-64
2021/12/27 03:16:18;;;;;;;49.30;44.20;;;;;;;-8.69;74.56;97555.42;106313;1323;22575;-64
2021/12/27 03:18:51;;;;;;;53.80;48.10;;;;;;;-8.70;74.29;97554.91;106268;1323;22412;-64
2021/12/27 03:21:20;;;;;;;56.20;50.30;;;;;;;-8.74;74.25;97555.49;106297;1323;22251;-64
2021/12/27 03:23:49;;;;;;;53.30;47.60;;;;;;;-8.79;74.17;97553.45;106268;1324;22423;-65
2021/12/27 03:26:18;;;;;;;54.70;47.10;;;;;;;-8.87;74.33;97553.92;106281;1323;22506;-62
2021/12/27 03:28:46;;;;;;;52.30;46.90;;;;;;;-8.95;74.29;97558.27;106301;1323;22430;-64
2021/12/27 03:31:16;;;;;;;55.10;49.40;;;;;;;-9.01;74.33;97560.91;106270;1324;22424;-65
2021/12/27 03:33:44;;;;;;;58.40;52.10;;;;;;;-9.05;74.51;97562.62;106193;1320;22402;-65
2021/12/27 03:36:13;;;;;;;54.30;48.60;;;;;;;-9.09;74.69;97564.49;106213;1317;22502;-65
2021/12/27 03:38:47;;;;;;;55.80;49.80;;;;;;;-9.14;74.64;97562.64;106267;1321;22575;-65
2021/12/27 03:41:17;;;;;;;56.00;49.80;;;;;;;-9.19;74.57;97560.88;106272;1323;22567;-65
2021/12/27 03:43:46;;;;;;;55.40;49.90;;;;;;;-9.25;74.69;97558.83;106238;1321;23096;-64
2021/12/27 03:46:14;;;;;;;56.50;50.50;;;;;;;-9.29;74.80;97557.38;106231;1318;23264;-65
2021/12/27 03:48:43;;;;;;;56.10;50.40;;;;;;;-9.33;75.07;97553.27;106268;1321;23133;-66
2021/12/27 03:51:12;;;;;;;59.40;53.10;;;;;;;-9.37;74.80;97552.69;106264;1323;22326;-65
2021/12/27 03:53:40;;;;;;;61.10;54.60;;;;;;;-9.38;74.84;97555.45;106273;1323;22503;-64
2021/12/27 03:56:08;;;;;;;62.70;56.20;;;;;;;-9.41;74.81;97556.73;106280;1324;22460;-64
2021/12/27 03:59:19;;;;;;;67.30;59.30;;;;;;;-9.45;74.65;97560.22;106254;1323;23227;-65
2021/12/27 04:01:27;;;;;;;70.60;63.10;;;;;;;-9.53;74.76;97566.45;106271;1323;22433;-65
2021/12/27 04:03:56;;;;;;;71.00;62.90;;;;;;;-9.63;74.94;97569.08;106256;1322;22412;-65
2021/12/27 04:06:26;;;;;;;78.80;67.80;;;;;;;-9.71;74.59;97570.75;106289;1323;22479;-65
2021/12/27 04:08:55;;;;;;;85.60;68.50;;;;;;;-9.82;75.02;97570.44;106273;1323;22964;-65
2021/12/27 04:11:23;;;;;;;80.00;70.40;;;;;;;-9.89;74.78;97573.17;106234;1323;22476;-65
2021/12/27 04:13:51;;;;;;;87.20;70.50;;;;;;;-9.97;74.93;97579.30;106266;1323;22306;-65
2021/12/27 04:16:19;;;;;;;83.60;71.10;;;;;;;-10.04;75.04;97585.88;106274;1323;22500;-65
2021/12/27 04:18:47;;;;;;;87.90;73.30;;;;;;;-10.12;74.98;97586.00;106243;1323;22618;-65
2021/12/27 04:21:15;;;;;;;99.80;75.20;;;;;;;-10.16;74.85;97589.10;106307;1323;22560;-65
2021/12/27 04:23:43;;;;;;;93.50;74.30;;;;;;;-10.16;75.02;97592.75;106246;1323;22579;-64
2021/12/27 04:26:11;;;;;;;87.60;76.30;;;;;;;-10.15;75.21;97595.73;106252;1324;22316;-64
2021/12/27 04:28:39;;;;;;;92.40;75.20;;;;;;;-10.15;75.16;97600.62;106298;1323;22508;-64
2021/12/27 04:31:07;;;;;;;94.60;77.40;;;;;;;-10.12;75.06;97601.94;106249;1323;23327;-64
2021/12/27 04:33:35;;;;;;;103.60;76.90;;;;;;;-10.07;75.05;97610.69;106268;1322;22555;-63
2021/12/27 04:36:04;;;;;;;95.10;76.10;;;;;;;-10.05;75.49;97609.96;106287;1324;22323;-63
2021/12/27 04:38:32;;;;;;;108.00;83.50;;;;;;;-10.05;75.41;97614.27;106312;1322;22474;-63
2021/12/27 04:41:03;;;;;;;116.60;83.90;;;;;;;-10.02;76.00;97616.23;106310;1323;22491;-63
2021/12/27 04:43:31;;;;;;;117.30;84.30;;;;;;;-10.03;76.45;97615.09;106248;1323;22567;-63
2021/12/27 04:45:59;;;;;;;130.80;85.30;;;;;;;-10.08;76.00;97615.61;106290;1323;22306;-63
2021/12/27 04:48:27;;;;;;;124.40;85.50;;;;;;;-10.07;75.84;97614.99;106329;1322;23221;-63
2021/12/27 04:50:56;;;;;;;125.30;87.50;;;;;;;-10.09;76.58;97615.27;106325;1323;23141;-63
2021/12/27 04:53:24;;;;;;;133.20;94.70;;;;;;;-10.11;75.89;97615.15;106351;1323;22547;-63
2021/12/27 04:55:52;;;;;;;132.00;87.70;;;;;;;-10.11;76.12;97609.41;106303;1323;22293;-62
2021/12/27 04:58:22;;;;;;;135.10;89.90;;;;;;;-10.17;76.49;97606.80;106311;1323;22535;-63
2021/12/27 05:00:53;;;;;;;144.30;95.60;;;;;;;-10.24;76.06;97610.01;106297;1322;22279;-64
2021/12/27 05:03:21;;;;;;;147.70;96.90;;;;;;;-10.26;75.78;97621.08;106327;1323;23271;-64
2021/12/27 05:05:49;;;;;;;148.80;94.50;;;;;;;-10.25;76.24;97637.33;106252;1323;22415;-64
2021/12/27 05:08:18;;;;;;;126.50;89.20;;;;;;;-10.28;76.40;97643.66;106309;1323;22363;-64
2021/12/27 05:10:47;;;;;;;118.00;85.10;;;;;;;-10.33;76.22;97652.08;106339;1323;22288;-64
2021/12/27 05:13:17;;;;;;;101.70;78.60;;;;;;;-10.36;76.50;97657.39;106259;1323;22620;-64
2021/12/27 05:15:46;;;;;;;84.80;74.30;;;;;;;-10.40;76.35;97652.44;106386;1323;22464;-64
2021/12/27 05:18:17;;;;;;;85.80;71.50;;;;;;;-10.37;76.24;97645.39;106336;1323;22341;-64
2021/12/27 05:20:45;;;;;;;84.10;69.90;;;;;;;-10.40;76.81;97641.77;106313;1320;22508;-64
2021/12/27 05:23:13;;;;;;;76.00;66.90;;;;;;;-10.47;76.57;97637.86;106301;1323;22465;-64
2021/12/27 05:25:41;;;;;;;70.80;63.30;;;;;;;-10.54;76.69;97632.14;106306;1323;22452;-63
2021/12/27 05:28:09;;;;;;;70.20;62.90;;;;;;;-10.57;76.95;97635.88;106343;1323;22472;-63
2021/12/27 05:30:38;;;;;;;76.10;64.10;;;;;;;-10.61;77.00;97640.61;106239;1323;22557;-63
2021/12/27 05:33:07;;;;;;;67.20;60.20;;;;;;;-10.63;77.15;97634.11;106252;1323;22466;-62
2021/12/27 05:35:35;;;;;;;62.90;56.20;;;;;;;-10.64;76.96;97624.06;106321;1323;22550;-63
2021/12/27 05:38:03;;;;;;;60.40;54.10;;;;;;;-10.65;77.01;97608.53;106339;1323;22487;-62
2021/12/27 05:40:31;;;;;;;60.50;54.20;;;;;;;-10.66;77.30;97606.10;106322;1323;22597;-63
2021/12/27 05:42:59;;;;;;;54.60;49.00;;;;;;;-10.69;77.50;97602.48;106341;1323;23248;-63
2021/12/27 05:45:27;;;;;;;51.60;46.10;;;;;;;-10.69;77.71;97602.80;106269;1323;22475;-62
2021/12/27 05:47:56;;;;;;;53.80;48.30;;;;;;;-10.70;77.41;97607.04;106310;1323;22424;-63
2021/12/27 05:50:24;;;;;;;56.90;50.90;;;;;;;-10.71;77.68;97602.98;106283;1323;22272;-63
2021/12/27 05:52:52;;;;;;;59.20;53.30;;;;;;;-10.72;77.89;97601.55;106359;1323;22412;-63
2021/12/27 05:55:21;;;;;;;56.00;50.20;;;;;;;-10.69;77.56;97601.44;106377;1323;22557;-64
2021/12/27 05:57:50;;;;;;;56.90;51.00;;;;;;;-10.66;77.77;97600.38;106325;1323;22298;-64
2021/12/27 06:00:20;;;;;;;57.50;51.80;;;;;;;-10.63;77.85;97603.48;106246;1323;22436;-64
2021/12/27 06:02:48;;;;;;;54.30;48.70;;;;;;;-10.57;77.72;97606.41;106360;1323;22270;-69
2021/12/27 06:05:17;;;;;;;53.00;47.80;;;;;;;-10.50;78.47;97605.31;106299;1323;23147;-65
2021/12/27 06:07:45;;;;;;;53.70;48.10;;;;;;;-10.48;78.70;97607.20;106317;1323;22556;-64
2021/12/27 06:10:13;;;;;;;52.30;46.90;;;;;;;-10.46;78.22;97605.92;106334;1323;23226;-64
2021/12/27 06:12:42;;;;;;;49.80;44.70;;;;;;;-10.40;78.54;97601.82;106347;1323;22496;-65
2021/12/27 06:15:10;;;;;;;51.40;46.10;;;;;;;-10.37;78.22;97603.15;106328;1323;23293;-64
2021/12/27 06:17:39;;;;;;;50.10;44.80;;;;;;;-10.30;78.18;97610.90;106347;1320;22942;-64
2021/12/27 06:20:10;;;;;;;50.60;45.20;;;;;;;-10.24;78.24;97603.42;106347;1323;22447;-62
2021/12/27 06:22:42;;;;;;;51.80;46.30;;;;;;;-10.19;78.45;97601.48;106329;1323;22586;-64
2021/12/27 06:25:10;;;;;;;56.20;50.00;;;;;;;-10.14;78.21;97599.29;106325;1323;22498;-63
2021/12/27 06:27:38;;;;;;;58.60;52.50;;;;;;;-10.08;78.42;97603.95;106340;1323;22308;-65
2021/12/27 06:30:08;;;;;;;55.60;49.60;;;;;;;-10.03;78.61;97601.60;106320;1323;22429;-64
2021/12/27 06:32:36;;;;;;;58.00;48.40;;;;;;;-10.03;78.63;97604.15;106302;1323;22450;-64
2021/12/27 06:35:07;;;;;;;55.10;49.20;;;;;;;-10.02;78.44;97595.52;106343;1323;22582;-64
2021/12/27 06:37:35;;;;;;;57.80;51.70;;;;;;;-10.00;78.36;97593.55;106328;1323;22413;-63
2021/12/27 06:40:04;;;;;;;59.20;52.90;;;;;;;-9.95;78.43;97596.69;106313;1320;22545;-65
2021/12/27 06:42:32;;;;;;;62.90;55.30;;;;;;;-9.91;78.15;97596.36;106313;1323;22493;-64
2021/12/27 06:45:00;;;;;;;53.80;48.10;;;;;;;-9.88;78.11;97593.05;106325;1323;23330;-64
2021/12/27 06:47:29;;;;;;;54.10;48.30;;;;;;;-9.85;78.24;97590.77;106350;1322;23546;-63
2021/12/27 06:49:57;;;;;;;53.80;48.00;;;;;;;-9.82;78.19;97586.97;106253;1323;22385;-64
2021/12/27 06:52:25;;;;;;;52.40;46.80;;;;;;;-9.80;78.29;97582.58;106345;1323;22302;-66
2021/12/27 06:54:53;;;;;;;59.10;52.80;;;;;;;-9.71;78.21;97588.95;106352;1323;22501;-65
2021/12/27 06:57:30;;;;;;;66.50;59.30;;;;;;;-9.67;78.23;97590.05;106383;1320;22465;-63
2021/12/27 06:59:59;;;;;;;61.60;54.10;;;;;;;-9.65;78.21;97585.00;106338;1322;23351;-62
2021/12/27 07:02:27;;;;;;;58.90;52.60;;;;;;;-9.67;78.14;97588.14;106284;1323;23130;-63
2021/12/27 07:04:55;;;;;;;58.90;49.60;;;;;;;-9.72;78.33;97591.70;106089;1324;23112;-62
2021/12/27 07:07:24;;;;;;;55.90;49.80;;;;;;;-9.75;78.47;97599.94;106313;1323;22288;-63
2021/12/27 07:09:52;;;;;;;58.60;52.20;;;;;;;-9.76;78.52;97600.59;106321;1323;22280;-62
2021/12/27 07:12:21;;;;;;;56.00;50.00;;;;;;;-9.77;78.84;97600.90;106347;1323;22483;-62
2021/12/27 07:14:49;;;;;;;55.00;49.20;;;;;;;-9.80;78.71;97601.15;106346;1323;22374;-61
2021/12/27 07:17:17;;;;;;;54.80;48.90;;;;;;;-9.78;78.77;97602.70;106340;1323;22514;-60
2021/12/27 07:19:45;;;;;;;57.20;50.40;;;;;;;-9.76;78.80;97604.73;106289;1322;22433;-62
2021/12/27 07:22:13;;;;;;;61.70;55.20;;;;;;;-9.74;78.80;97603.09;106345;1323;22578;-61
2021/12/27 07:24:41;;;;;;;67.40;60.40;;;;;;;-9.68;78.67;97603.30;106316;1323;22491;-62
2021/12/27 07:27:09;;;;;;;70.50;62.90;;;;;;;-9.64;78.95;97599.27;106337;1323;22589;-62
2021/12/27 07:29:37;;;;;;;75.10;66.70;;;;;;;-9.63;78.58;97597.16;106338;1323;22480;-62
2021/12/27 07:32:06;;;;;;;85.10;68.60;;;;;;;-9.61;78.62;97591.30;106349;1323;23101;-62
2021/12/27 07:34:39;;;;;;;95.70;74.40;;;;;;;-9.55;78.85;97589.05;106352;1323;22380;-65
2021/12/27 07:37:07;;;;;;;90.80;71.30;;;;;;;-9.44;78.90;97586.20;106375;1323;22609;-65
2021/12/27 07:39:35;;;;;;;82.60;69.10;;;;;;;-9.38;78.76;97587.57;106333;1323;22552;-66
2021/12/27 07:42:04;;;;;;;72.60;63.40;;;;;;;-9.34;78.96;97581.88;106326;1323;22436;-64
2021/12/27 07:44:32;;;;;;;64.40;57.70;;;;;;;-9.32;79.19;97580.47;106286;1323;22471;-65
2021/12/27 07:47:01;;;;;;;61.90;55.00;;;;;;;-9.34;79.45;97584.85;106334;1323;22475;-65
2021/12/27 07:49:28;;;;;;;53.20;47.60;;;;;;;-9.37;79.10;97585.92;106328;1323;22464;-65
2021/12/27 07:51:56;;;;;;;55.20;49.30;;;;;;;-9.36;79.37;97589.48;106318;1323;22487;-65
2021/12/27 07:54:25;;;;;;;53.00;47.60;;;;;;;-9.31;79.34;97586.05;106337;1323;22522;-64
2021/12/27 07:56:54;;;;;;;54.40;48.80;;;;;;;-9.31;78.90;97580.31;106344;1323;22538;-64
2021/12/27 07:59:22;;;;;;;53.80;48.50;;;;;;;-9.29;79.43;97574.92;106331;1323;22388;-64
2021/12/27 08:01:51;;;;;;;49.10;44.10;;;;;;;-9.28;79.20;97572.98;106337;1323;22345;-64
2021/12/27 08:04:19;;;;;;;50.40;45.30;;;;;;;-9.27;79.39;97570.30;106322;1322;22415;-63
2021/12/27 08:06:47;;;;;;;134.30;85.50;;;;;;;-9.25;79.51;97568.11;106372;1323;22394;-62
2021/12/27 08:09:15;;;;;;;57.30;51.50;;;;;;;-9.16;79.39;97565.83;106325;1322;22318;-63
2021/12/27 08:11:43;;;;;;;59.60;53.40;;;;;;;-9.11;79.10;97566.48;106333;1323;22535;-64
2021/12/27 08:14:11;;;;;;;52.50;47.20;;;;;;;-9.08;79.55;97562.86;106321;1320;22330;-65
2021/12/27 08:16:39;;;;;;;50.70;45.70;;;;;;;-9.08;79.99;97557.88;106332;1323;22431;-65
2021/12/27 08:19:07;;;;;;;58.30;52.10;;;;;;;-9.06;79.56;97557.61;106325;1323;22487;-64
2021/12/27 08:21:37;;;;;;;56.70;50.70;;;;;;;-9.01;79.39;97560.65;106316;1323;22391;-64
2021/12/27 08:24:06;;;;;;;54.60;48.90;;;;;;;-8.95;79.49;97556.46;106331;1322;23210;-64
2021/12/27 08:26:35;;;;;;;58.40;52.60;;;;;;;-8.92;79.74;97554.63;106330;1323;22553;-64
2021/12/27 08:29:07;;;;;;;54.90;49.30;;;;;;;-8.87;79.63;97557.73;106243;1323;22418;-64
2021/12/27 08:31:35;;;;;;;52.10;46.50;;;;;;;-8.86;80.09;97557.78;106368;1323;23153;-63
2021/12/27 08:34:03;;;;;;;50.10;44.80;;;;;;;-8.91;80.36;97553.52;106355;1323;23059;-64
2021/12/27 08:36:31;;;;;;;52.00;46.50;;;;;;;-8.94;80.18;97545.52;106328;1323;22542;-63
2021/12/27 08:38:59;;;;;;;56.40;50.40;;;;;;;-8.94;79.92;97548.81;106317;1323;22813;-62
2021/12/27 08:41:28;;;;;;;55.10;49.20;;;;;;;-8.87;79.94;97548.21;106340;1323;22489;-63
2021/12/27 08:44:04;;;;;;;54.30;48.30;;;;;;;-8.85;80.46;97546.38;106314;1323;22598;-63
2021/12/27 08:46:34;;;;;;;56.20;50.40;;;;;;;-8.88;80.63;97544.73;106248;1322;22472;-63
2021/12/27 08:49:03;;;;;;;55.60;48.20;;;;;;;-8.87;80.66;97540.89;106301;1323;23126;-63
2021/12/27 08:51:32;;;;;;;58.00;51.90;;;;;;;-8.87;80.57;97543.96;106316;1323;23148;-63
2021/12/27 08:54:00;;;;;;;60.90;52.30;;;;;;;-8.88;80.57;97539.77;106329;1323;22605;-63
2021/12/27 08:56:28;;;;;;;62.70;55.80;;;;;;;-8.89;80.79;97541.96;106295;1322;22482;-63
2021/12/27 08:58:57;;;;;;;62.20;55.20;;;;;;;-8.86;80.79;97537.94;106326;1323;22276;-64
2021/12/27 09:01:26;;;;;;;72.70;64.70;;;;;;;-8.82;80.48;97540.73;106315;1323;22401;-64
2021/12/27 09:03:55;;;;;;;70.40;62.70;;;;;;;-8.73;80.89;97547.00;106317;1322;23135;-63
2021/12/27 09:06:24;;;;;;;77.40;67.20;;;;;;;-8.66;80.51;97547.88;106328;1323;23566;-63
2021/12/27 09:08:52;;;;;;;94.60;71.90;;;;;;;-8.60;80.03;97548.58;106336;1323;23741;-63
2021/12/27 09:11:20;;;;;;;71.40;61.00;;;;;;;-8.52;80.23;97551.36;106331;1323;23139;-63
2021/12/27 09:13:48;;;;;;;74.20;63.50;;;;;;;-8.43;80.12;97552.27;106323;1322;22500;-62
2021/12/27 09:16:36;;;;;;;78.70;68.00;;;;;;;-8.28;80.29;97551.43;106328;1323;23358;-64
2021/12/27 09:19:05;;;;;;;81.50;66.70;;;;;;;-8.21;80.10;97551.13;106295;1322;23340;-63
2021/12/27 09:21:33;;;;;;;74.60;63.30;;;;;;;-8.18;80.20;97551.35;106319;1323;22727;-64
2021/12/27 09:24:01;;;;;;;69.30;61.90;;;;;;;-8.19;80.48;97543.55;106325;1323;22484;-64
2021/12/27 09:26:29;;;;;;;71.10;63.10;;;;;;;-8.21;80.21;97547.23;106332;1323;23614;-64
2021/12/27 09:28:58;;;;;;;65.70;58.60;;;;;;;-8.19;80.28;97547.97;106305;1323;22864;-65
2021/12/27 09:31:26;;;;;;;68.00;60.70;;;;;;;-8.19;80.47;97544.66;106287;1323;22270;-64
2021/12/27 09:33:54;;;;;;;67.30;60.30;;;;;;;-8.24;80.42;97539.40;106319;1323;23245;-64
2021/12/27 09:36:24;;;;;;;66.00;58.90;;;;;;;-8.28;80.42;97546.12;106349;1323;22528;-64
2021/12/27 09:38:52;;;;;;;68.20;61.20;;;;;;;-8.28;80.21;97541.48;106325;1323;22502;-65
2021/12/27 09:41:25;;;;;;;71.50;62.00;;;;;;;-8.25;80.43;97537.06;106315;1323;23291;-65
2021/12/27 09:43:55;;;;;;;69.40;60.30;;;;;;;-8.19;80.23;97530.80;106231;1323;22252;-65
2021/12/27 09:46:23;;;;;;;68.60;61.20;;;;;;;-8.16;80.22;97529.66;106314;1323;23247;-64
2021/12/27 09:48:55;;;;;;;65.00;57.50;;;;;;;-8.07;80.36;97526.68;106274;1323;22502;-65
2021/12/27 09:51:26;;;;;;;63.10;54.80;;;;;;;-8.01;80.34;97526.88;106170;1315;204798;-64
2021/12/27 09:53:54;;;;;;;62.10;55.10;;;;;;;-8.02;80.29;97528.55;106324;1323;22409;-65
2021/12/27 09:56:22;;;;;;;62.10;55.20;;;;;;;-8.04;80.14;97527.73;106362;1323;22504;-66
2021/12/27 09:58:51;;;;;;;61.10;54.80;;;;;;;-8.01;80.20;97522.65;106282;1323;22512;-65
2021/12/27 10:01:19;;;;;;;63.40;56.50;;;;;;;-7.98;80.33;97525.09;106303;1323;22426;-65
2021/12/27 10:03:47;;;;;;;66.50;58.50;;;;;;;-7.96;80.29;97523.77;106272;1323;22268;-65
2021/12/27 10:06:18;;;;;;;66.90;59.30;;;;;;;-7.97;80.11;97522.33;106324;1322;22592;-65
2021/12/27 10:08:47;;;;;;;67.00;59.20;;;;;;;-7.96;80.04;97528.33;106262;1323;22541;-65
2021/12/27 10:11:21;;;;;;;63.70;57.20;;;;;;;-7.96;80.10;97526.16;106261;1323;22465;-65
2021/12/27 10:14:12;;;;;;;65.30;58.20;;;;;;;-7.87;80.40;97525.34;106306;1322;23143;-64
2021/12/27 10:16:40;;;;;;;65.50;58.50;;;;;;;-7.79;80.41;97528.53;106318;1322;22539;-65
2021/12/27 10:19:11;;;;;;;63.50;56.70;;;;;;;-7.72;80.19;97531.46;106348;1323;22562;-64
2021/12/27 10:21:47;;;;;;;67.90;60.60;;;;;;;-7.64;80.26;97526.61;106354;1323;23311;-63
2021/12/27 10:24:21;;;;;;;72.70;58.90;;;;;;;-7.50;80.52;97522.98;106345;1323;22578;-63
2021/12/27 10:26:50;;;;;;;64.80;57.90;;;;;;;-7.45;79.78;97521.41;106340;1323;22431;-64
2021/12/27 10:29:27;;;;;;;60.30;54.10;;;;;;;-7.49;79.94;97517.96;106336;1323;22445;-65
2021/12/27 10:32:04;;;;;;;63.10;56.50;;;;;;;-7.57;79.86;97520.89;106288;1323;22448;-64
2021/12/27 10:34:43;;;;;;;65.60;58.50;;;;;;;-7.64;79.73;97520.25;106296;1323;22302;-64
2021/12/27 10:37:26;;;;;;;67.10;59.90;;;;;;;-7.63;79.90;97517.12;106317;1323;22539;-64
2021/12/27 10:40:15;;;;;;;65.70;58.60;;;;;;;-7.65;79.96;97516.62;106335;1323;22495;-64
2021/12/27 10:42:48;;;;;;;67.10;60.00;;;;;;;-7.68;79.90;97511.65;106341;1323;23269;-64
2021/12/27 10:45:22;;;;;;;61.80;55.10;;;;;;;-7.74;79.78;97512.65;106322;1323;22379;-65
2021/12/27 10:47:57;;;;;;;65.60;57.90;;;;;;;-7.79;79.97;97514.64;106332;1323;22408;-65
2021/12/27 10:50:28;;;;;;;;;;;;;;;-7.84;80.06;97513.23;106276;1323;22517;-64
2021/12/27 10:53:08;;;;;;;66.00;58.50;;;;;;;-7.90;80.17;97508.98;106320;1323;22439;-65
2021/12/27 10:55:46;;;;;;;67.90;58.30;;;;;;;-7.86;80.10;97505.58;106265;1323;22475;-65
2021/12/27 10:58:26;;;;;;;68.30;58.70;;;;;;;-7.84;80.07;97499.69;106329;1322;22425;-66
2021/12/27 11:01:00;;;;;;;73.40;62.70;;;;;;;-7.83;80.09;97497.35;106321;1323;22287;-65
2021/12/27 11:03:36;;;;;;;71.90;62.00;;;;;;;-7.79;80.16;97494.61;106320;1322;22517;-61
2021/12/27 11:06:09;;;;;;;68.50;61.20;;;;;;;-7.78;80.16;97488.41;106333;1323;22287;-60
2021/12/27 11:08:46;;;;;;;68.10;60.70;;;;;;;-7.84;79.97;97488.58;106299;1323;22502;-61
2021/12/27 11:11:26;;;;;;;66.00;58.80;;;;;;;-7.85;79.96;97488.29;106335;1323;22277;-61
2021/12/27 11:13:57;;;;;;;64.10;57.20;;;;;;;-7.89;80.20;97481.91;106242;1323;22436;-62
2021/12/27 11:16:27;;;;;;;70.10;62.20;;;;;;;-7.90;80.43;97476.15;106317;1323;23154;-62
2021/12/27 11:18:56;;;;;;;66.70;58.90;;;;;;;-7.91;80.32;97468.22;106296;1323;23042;-63
2021/12/27 11:21:41;;;;;;;70.50;63.00;;;;;;;-7.88;80.28;97463.73;106302;1323;22453;-63
2021/12/27 11:24:09;;;;;;;75.10;67.00;;;;;;;-7.82;80.40;97456.36;106317;1317;23055;-61
2021/12/27 11:26:42;;;;;;;71.50;62.90;;;;;;;-7.73;80.42;97457.58;106177;1323;138578;-61